Time;durP1;ratioP1;P1;durP2;ratioP2;P2;SDS_P1;SDS_P2;PMS_P1;PMS_P2;Temp;Humidity;BMP_temperature;BMP_pressure;BME280_temperature;BME280_humidity;BME280_pressure;Samples;Min_cycle;Max_cycle;Signal;HPM_P1;HPM_P2
2022/04/04 00:00:10;;;;;;;10.52;8.38;;;;;;;10.53;55.68;101573.50;5033770;28;20053;-61
2022/04/04 00:02:37;;;;;;;10.10;8.07;;;;;;;10.52;55.66;101577.03;5033772;28;20056;-61
2022/04/04 00:05:04;;;;;;;10.98;8.07;;;;;;;10.50;55.57;101573.63;5033773;28;20048;-61
2022/04/04 00:07:31;;;;;;;10.60;8.45;;;;;;;10.52;55.61;101570.94;5033364;28;20045;-60
2022/04/04 00:09:57;;;;;;;13.32;8.23;;;;;;;10.49;55.70;101579.78;5033354;28;20041;-61
2022/04/04 00:12:24;;;;;;;9.20;7.75;;;;;;;10.48;55.73;101578.09;5033393;28;20175;-61
2022/04/04 00:14:51;;;;;;;11.02;8.57;;;;;;;10.47;55.57;101568.50;5032269;28;20485;-61
2022/04/04 00:17:18;;;;;;;10.95;8.27;;;;;;;10.47;55.68;101562.41;5033225;28;20045;-61
2022/04/04 00:19:45;;;;;;;10.20;8.15;;;;;;;10.45;55.72;101570.34;5033506;28;20103;-60
2022/04/04 00:22:12;;;;;;;10.55;8.15;;;;;;;10.44;55.63;101566.84;5033374;28;20486;-61
2022/04/04 00:24:38;;;;;;;9.95;8.30;;;;;;;10.47;55.60;101565.88;5032983;28;20445;-60
2022/04/04 00:27:05;;;;;;;10.88;8.85;;;;;;;10.48;55.60;101569.38;5033195;28;20046;-62
2022/04/04 00:29:31;;;;;;;10.20;8.38;;;;;;;10.48;55.45;101569.38;5032913;28;20053;-60
2022/04/04 00:31:58;;;;;;;10.50;8.00;;;;;;;10.49;55.37;101568.44;5033035;28;20057;-61
2022/04/04 00:34:25;;;;;;;12.40;8.63;;;;;;;10.49;55.52;101566.69;5031911;28;20493;-60
2022/04/04 00:36:51;;;;;;;9.93;8.30;;;;;;;10.50;55.50;101572.75;5033092;28;20406;-61
2022/04/04 00:39:19;;;;;;;11.75;9.02;;;;;;;10.50;55.60;101568.38;5032615;28;20069;-61
2022/04/04 00:41:47;;;;;;;11.15;8.82;;;;;;;10.48;55.62;101569.38;5032767;28;20054;-67
2022/04/04 00:44:14;;;;;;;11.40;8.55;;;;;;;10.49;55.66;101571.06;5032855;28;20049;-66
2022/04/04 00:46:42;;;;;;;10.15;8.30;;;;;;;10.49;55.71;101565.81;5032674;28;20053;-65
2022/04/04 00:49:10;;;;;;;13.50;8.57;;;;;;;10.47;55.85;101570.28;5031251;28;20060;-66
2022/04/04 00:51:37;;;;;;;11.52;8.65;;;;;;;10.44;55.88;101572.09;5032661;28;20076;-66
2022/04/04 00:54:05;;;;;;;13.73;10.18;;;;;;;10.44;55.88;101573.91;5032533;28;20379;-66
2022/04/04 00:56:33;;;;;;;12.40;8.90;;;;;;;10.44;55.87;101568.66;5032020;28;20103;-65
2022/04/04 00:59:00;;;;;;;10.98;8.90;;;;;;;10.43;55.75;101566.94;5032761;28;20045;-65
2022/04/04 01:01:27;;;;;;;11.77;8.43;;;;;;;10.42;55.94;101570.47;5032433;28;20085;-65
2022/04/04 01:03:54;;;;;;;11.60;9.05;;;;;;;10.40;55.99;101565.28;5032548;28;20057;-66
2022/04/04 01:06:20;;;;;;;10.57;8.30;;;;;;;10.40;56.01;101565.28;5031421;28;20045;-62
2022/04/04 01:08:47;;;;;;;15.25;9.07;;;;;;;10.41;56.05;101569.63;5032488;28;20045;-67
2022/04/04 01:11:14;;;;;;;14.23;8.57;;;;;;;10.41;56.07;101569.63;5032573;28;20049;-63
2022/04/04 01:13:48;;;;;;;11.77;9.45;;;;;;;10.40;56.16;101567.91;5032398;28;20068;-65
2022/04/04 01:16:14;;;;;;;11.02;8.85;;;;;;;10.40;56.19;101569.69;5032508;28;20103;-66
2022/04/04 01:18:42;;;;;;;12.20;9.00;;;;;;;10.38;56.26;101564.50;5032115;28;20053;-65
2022/04/04 01:21:09;;;;;;;10.80;8.45;;;;;;;10.39;56.17;101568.00;5032300;28;20097;-62
2022/04/04 01:23:42;;;;;;;12.32;8.77;;;;;;;10.38;56.02;101561.88;5031108;28;20045;-66
2022/04/04 01:26:10;;;;;;;10.95;8.25;;;;;;;10.35;56.14;101569.84;5032155;28;20167;-67
2022/04/04 01:28:38;;;;;;;10.63;8.57;;;;;;;10.35;56.02;101568.97;5032002;28;20050;-66
2022/04/04 01:31:05;;;;;;;13.25;8.73;;;;;;;10.33;56.16;101565.59;5032147;28;20053;-61
2022/04/04 01:33:32;;;;;;;13.13;8.93;;;;;;;10.30;56.04;101561.31;5031404;28;20057;-65
2022/04/04 01:35:59;;;;;;;11.82;8.93;;;;;;;10.31;56.06;101555.16;5031665;28;20050;-65
2022/04/04 01:38:26;;;;;;;10.80;8.13;;;;;;;10.30;56.00;101556.91;5031444;28;20410;-63
2022/04/04 01:40:53;;;;;;;10.18;8.15;;;;;;;10.28;56.12;101561.41;5030240;28;20099;-61
2022/04/04 01:43:20;;;;;;;13.32;8.73;;;;;;;10.29;55.90;101551.75;5031956;28;20049;-61
2022/04/04 01:48:39;;;;;;;9.85;7.88;;;;;;;10.27;56.02;101556.19;5031816;28;20081;-61
2022/04/04 01:51:06;;;;;;;11.23;8.13;;;;;;;10.29;55.75;101555.22;5031918;28;20099;-66
2022/04/04 01:53:33;;;;;;;11.02;7.63;;;;;;;10.26;55.82;101555.34;5032012;28;20049;-61
2022/04/04 01:56:03;;;;;;;9.82;7.82;;;;;;;10.24;55.86;101557.19;5030750;28;20092;-62
2022/04/04 01:58:30;;;;;;;9.27;7.80;;;;;;;10.23;55.91;101550.25;5031763;28;20062;-61
2022/04/04 02:01:01;;;;;;;9.02;7.60;;;;;;;10.23;55.87;101552.88;5031836;28;20049;-63
2022/04/04 02:03:29;;;;;;;10.07;7.15;;;;;;;10.24;55.77;101556.34;5031790;28;20052;-60
2022/04/04 02:05:56;;;;;;;8.93;7.22;;;;;;;10.22;55.72;101548.53;5031765;28;20057;-63
2022/04/04 02:08:22;;;;;;;11.05;7.22;;;;;;;10.22;55.61;101542.41;5033137;28;20410;-62
2022/04/04 02:10:49;;;;;;;8.73;6.68;;;;;;;10.22;55.55;101550.28;5035741;28;20049;-61
2022/04/04 02:13:16;;;;;;;10.82;7.15;;;;;;;10.22;55.49;101551.16;5035660;28;20050;-61
2022/04/04 02:15:43;;;;;;;9.13;7.35;;;;;;;10.21;55.51;101549.44;5035554;28;20432;-61
2022/04/04 02:18:10;;;;;;;11.27;7.60;;;;;;;10.18;55.44;101543.47;5035773;28;20096;-61
2022/04/04 02:20:37;;;;;;;8.77;7.50;;;;;;;10.19;55.37;101546.03;5035333;28;20486;-61
2022/04/04 02:23:03;;;;;;;9.27;7.35;;;;;;;10.16;55.19;101542.69;5035333;28;20050;-61
2022/04/04 02:25:30;;;;;;;9.18;7.22;;;;;;;10.17;55.31;101539.16;5034246;28;20049;-62
2022/04/04 02:27:56;;;;;;;12.57;7.55;;;;;;;10.15;55.31;101541.84;5035264;28;20425;-61
2022/04/04 02:30:24;;;;;;;9.45;6.90;;;;;;;10.14;55.31;101537.50;5035168;28;20080;-61
2022/04/04 02:32:51;;;;;;;9.85;7.15;;;;;;;10.13;55.02;101538.41;5035498;28;20052;-61
2022/04/04 02:35:19;;;;;;;10.55;7.00;;;;;;;10.13;55.08;101533.16;5035302;28;20056;-62
2022/04/04 02:37:47;;;;;;;9.20;7.15;;;;;;;10.12;55.06;101529.72;5034835;28;20057;-60
2022/04/04 02:40:14;;;;;;;9.20;6.57;;;;;;;10.12;54.94;101537.56;5034981;28;20115;-62
2022/04/04 02:42:40;;;;;;;9.60;7.05;;;;;;;10.10;55.20;101541.19;5034000;28;20479;-61
2022/04/04 02:45:07;;;;;;;10.18;6.90;;;;;;;10.06;55.13;101535.22;5034955;28;20474;-66
2022/04/04 02:47:34;;;;;;;9.23;6.45;;;;;;;10.05;55.21;101536.13;5034870;28;20045;-66
2022/04/04 02:50:01;;;;;;;9.02;6.78;;;;;;;10.05;54.98;101532.66;5034719;28;20053;-60
2022/04/04 02:52:28;;;;;;;16.27;7.57;;;;;;;10.03;54.97;101531.84;5034878;28;20053;-60
2022/04/04 02:54:55;;;;;;;8.40;6.90;;;;;;;10.03;54.71;101531.84;5034662;28;20060;-61
2022/04/04 02:57:21;;;;;;;10.95;6.85;;;;;;;10.02;54.86;101527.50;5034845;28;20052;-60
2022/04/04 02:59:48;;;;;;;9.15;6.40;;;;;;;9.99;54.93;101528.50;5033714;28;20064;-60
2022/04/04 03:02:15;;;;;;;8.40;6.60;;;;;;;9.97;55.07;101523.31;5033080;28;20050;-62
2022/04/04 03:04:42;;;;;;;9.38;6.75;;;;;;;9.98;54.94;101532.06;5030199;28;20052;-61
2022/04/04 03:07:09;;;;;;;8.60;7.07;;;;;;;9.94;55.06;101533.97;5031470;28;20052;-60
2022/04/04 03:09:37;;;;;;;8.43;6.78;;;;;;;9.91;55.21;101530.59;5030876;28;20413;-60
2022/04/04 03:12:06;;;;;;;10.18;7.20;;;;;;;9.91;55.25;101535.84;5031354;28;20050;-60
2022/04/04 03:14:32;;;;;;;10.57;7.10;;;;;;;9.90;55.20;101536.75;5031372;28;20053;-60
2022/04/04 03:16:59;;;;;;;10.02;6.93;;;;;;;9.88;55.27;101530.72;5030034;28;22621;-62
2022/04/04 03:19:27;;;;;;;8.65;6.85;;;;;;;9.90;55.32;101526.28;5030258;28;20128;-60
2022/04/04 03:21:56;;;;;;;11.52;7.38;;;;;;;9.86;55.31;101530.78;5031218;28;20564;-61
2022/04/04 03:24:23;;;;;;;8.18;6.88;;;;;;;9.84;55.31;101531.75;5031027;28;20494;-61
2022/04/04 03:26:50;;;;;;;10.60;7.25;;;;;;;9.81;55.40;101530.13;5031039;28;20095;-60
2022/04/04 03:29:17;;;;;;;11.90;7.32;;;;;;;9.78;55.62;101533.72;5030938;28;20051;-60
2022/04/04 03:31:44;;;;;;;10.60;7.60;;;;;;;9.74;55.73;101533.91;5030930;28;20049;-60
2022/04/04 03:34:10;;;;;;;9.07;7.15;;;;;;;9.72;55.77;101538.38;5029946;28;20076;-61
2022/04/04 03:36:37;;;;;;;15.90;9.45;;;;;;;9.68;55.92;101545.50;5030866;28;20042;-61
2022/04/04 03:39:04;;;;;;;12.43;8.82;;;;;;;9.65;56.05;101545.63;5030814;28;20041;-61
2022/04/04 03:41:30;;;;;;;13.75;7.93;;;;;;;9.63;56.08;101548.28;5030838;28;20095;-61
2022/04/04 03:43:57;;;;;;;11.02;8.30;;;;;;;9.62;56.25;101548.34;5030932;28;20045;-61
2022/04/04 03:46:24;;;;;;;10.88;8.20;;;;;;;9.59;56.37;101544.09;5030463;28;20050;-61
2022/04/04 03:48:51;;;;;;;11.95;8.52;;;;;;;9.58;56.65;101541.53;5029855;28;20046;-61
2022/04/04 03:51:17;;;;;;;11.20;8.43;;;;;;;9.59;56.79;101548.47;5029370;28;20042;-61
2022/04/04 03:53:44;;;;;;;9.48;8.00;;;;;;;9.56;56.78;101543.34;5030562;28;20053;-60
2022/04/04 03:56:11;;;;;;;11.43;8.52;;;;;;;9.54;57.14;101551.28;5030594;28;20053;-61
2022/04/04 03:58:38;;;;;;;12.20;9.15;;;;;;;9.49;57.33;101550.59;5030374;28;20072;-60
2022/04/04 04:01:05;;;;;;;11.80;8.07;;;;;;;9.48;57.44;101551.50;5030223;28;20103;-61
2022/04/04 04:03:34;;;;;;;10.63;8.52;;;;;;;9.47;57.60;101550.66;5030556;28;20088;-60
2022/04/04 04:06:12;;;;;;;10.68;8.48;;;;;;;9.45;57.91;101557.72;5030476;28;20096;-66
2022/04/04 04:08:45;;;;;;;9.30;7.85;;;;;;;9.45;58.13;101557.72;5017099;28;20049;-61
2022/04/04 04:11:16;;;;;;;11.07;8.18;;;;;;;9.43;58.14;101562.19;5030196;28;20092;-61
2022/04/04 04:13:44;;;;;;;10.93;8.68;;;;;;;9.43;58.53;101561.31;5029989;28;20558;-60
2022/04/04 04:16:13;;;;;;;12.98;8.93;;;;;;;9.41;58.55;101560.53;5030232;28;20057;-63
2022/04/04 04:18:41;;;;;;;11.43;9.55;;;;;;;9.40;58.52;101564.06;5030178;28;20103;-61
2022/04/04 04:21:09;;;;;;;11.57;9.23;;;;;;;9.39;58.64;101565.81;5029922;28;20056;-62
2022/04/04 04:23:42;;;;;;;11.35;9.02;;;;;;;9.39;58.53;101570.22;5029328;28;20045;-66
2022/04/04 04:26:11;;;;;;;11.40;8.65;;;;;;;9.42;58.71;101570.97;5028633;28;20056;-63
2022/04/04 04:28:39;;;;;;;11.88;9.40;;;;;;;9.40;58.84;101567.53;5029798;28;20072;-61
2022/04/04 04:31:06;;;;;;;11.75;9.13;;;;;;;9.41;58.70;101576.25;5028782;28;20049;-65
2022/04/04 04:33:33;;;;;;;13.80;9.02;;;;;;;9.44;58.78;101573.50;5029869;28;20509;-61
2022/04/04 04:36:00;;;;;;;14.48;9.52;;;;;;;9.45;58.58;101573.44;5030090;28;20422;-60
2022/04/04 04:38:27;;;;;;;11.10;8.45;;;;;;;9.52;58.42;101576.66;5029546;28;20041;-61
2022/04/04 04:40:54;;;;;;;12.15;8.90;;;;;;;9.53;58.32;101578.38;5028357;28;20049;-61
2022/04/04 04:43:20;;;;;;;12.23;8.70;;;;;;;9.55;58.16;101579.19;5029552;28;20050;-61
2022/04/04 04:45:48;;;;;;;9.85;8.30;;;;;;;9.57;58.14;101576.50;5029561;28;20050;-61
2022/04/04 04:48:15;;;;;;;10.80;8.27;;;;;;;9.57;57.94;101580.00;5029768;28;20052;-61
2022/04/04 04:50:42;;;;;;;14.60;8.32;;;;;;;9.57;57.83;101584.38;5029219;28;20049;-63
2022/04/04 04:53:08;;;;;;;11.00;8.27;;;;;;;9.59;57.99;101588.63;5029532;28;20049;-60
2022/04/04 04:55:35;;;;;;;10.35;8.40;;;;;;;9.60;57.91;101589.50;5029264;28;20042;-62
2022/04/04 04:58:02;;;;;;;15.00;8.95;;;;;;;9.60;57.74;101587.72;5027644;28;20057;-63
2022/04/04 05:00:30;;;;;;;12.20;8.77;;;;;;;9.60;57.72;101592.97;5029136;28;20053;-60
2022/04/04 05:05:43;;;;;;;5.32;2.50;;;;;;;10.24;57.15;101593.91;5029734;28;20076;-60
2022/04/04 05:08:10;;;;;;;8.23;4.45;;;;;;;11.23;57.51;101589.66;5029291;28;20048;-60
2022/04/04 05:10:36;;;;;;;12.02;8.45;;;;;;;11.13;57.51;101593.63;5029455;28;20480;-63
2022/04/04 05:13:03;;;;;;;9.23;7.43;;;;;;;10.75;58.11;101596.19;5029230;28;20049;-64
2022/04/04 05:15:30;;;;;;;12.07;8.90;;;;;;;10.52;58.27;101599.81;5026910;28;20076;-64
2022/04/04 05:17:57;;;;;;;14.07;8.90;;;;;;;10.37;58.04;101596.88;5028985;28;20478;-63
2022/04/04 05:20:23;;;;;;;11.63;8.30;;;;;;;10.27;58.03;101600.78;5029054;28;20057;-64
2022/04/04 05:22:51;;;;;;;10.88;8.75;;;;;;;10.20;57.87;101607.22;5028058;28;20387;-60
2022/04/04 05:25:18;;;;;;;11.88;8.77;;;;;;;10.12;57.69;101602.28;5028456;28;20052;-61
2022/04/04 05:27:44;;;;;;;14.23;8.48;;;;;;;10.11;57.53;101604.03;5028774;28;20430;-60
2022/04/04 05:30:11;;;;;;;11.35;8.10;;;;;;;10.07;57.29;101602.47;5029184;28;20049;-67
2022/04/04 05:32:38;;;;;;;11.02;8.98;;;;;;;10.07;57.10;101605.09;5029240;28;20475;-63
2022/04/04 05:35:08;;;;;;;12.02;8.48;;;;;;;10.10;56.95;101607.59;5029104;28;20049;-64
2022/04/04 05:37:35;;;;;;;13.10;9.07;;;;;;;10.10;56.84;101604.13;5027613;28;20073;-64
2022/04/04 05:40:03;;;;;;;20.02;10.80;;;;;;;10.11;56.66;101613.69;5028800;28;20058;-66
2022/04/04 05:42:31;;;;;;;16.77;11.52;;;;;;;10.15;56.59;101609.19;5031863;28;20057;-63
2022/04/04 05:44:58;;;;;;;15.82;11.20;;;;;;;10.15;56.49;101614.44;5033041;28;20045;-61
2022/04/04 05:47:26;;;;;;;17.77;11.13;;;;;;;10.12;56.54;101616.25;5032865;28;20482;-62
2022/04/04 05:49:53;;;;;;;14.75;9.55;;;;;;;10.13;56.53;101614.47;5032928;28;20053;-64
2022/04/04 05:52:24;;;;;;;12.05;8.85;;;;;;;10.16;56.43;101610.88;5032908;28;20049;-63
2022/04/04 05:54:54;;;;;;;14.85;4.82;;;;;;;10.55;56.07;101607.53;5032591;28;20046;-62
2022/04/04 05:57:22;;;;;;;14.07;8.85;;;;;;;10.49;56.89;101613.03;5032592;28;20602;-64
2022/04/04 05:59:50;;;;;;;12.38;9.05;;;;;;;10.40;56.90;101609.06;5032440;28;20888;-64
2022/04/04 06:02:17;;;;;;;12.07;8.98;;;;;;;10.38;56.82;101610.88;5032580;28;20095;-64
2022/04/04 06:04:47;;;;;;;10.50;8.98;;;;;;;10.38;56.59;101616.97;5032770;28;20050;-64
2022/04/04 06:07:14;;;;;;;9.63;7.60;;;;;;;10.37;56.65;101610.00;5031669;28;20057;-62
2022/04/04 06:09:41;;;;;;;14.10;11.60;;;;;;;10.47;56.22;101609.66;5032204;28;20107;-62
2022/04/04 06:12:10;;;;;;;14.35;8.63;;;;;;;10.44;55.99;101613.25;5029946;28;20104;-61
2022/04/04 06:14:37;;;;;;;12.45;8.95;;;;;;;10.45;55.96;101614.97;5030645;28;20041;-64
2022/04/04 06:17:05;;;;;;;9.65;7.50;;;;;;;10.46;55.72;101614.03;5029168;28;20049;-62
2022/04/04 06:19:35;;;;;;;11.25;8.13;;;;;;;10.48;55.69;101609.56;5031315;28;20041;-63
2022/04/04 06:22:03;;;;;;;11.80;7.50;;;;;;;10.52;55.48;101612.94;5031176;28;20045;-62
2022/04/04 06:24:31;;;;;;;13.38;7.80;;;;;;;10.55;55.25;101607.53;5031457;28;20044;-62
2022/04/04 06:26:58;;;;;;;11.15;7.22;;;;;;;10.58;55.04;101607.41;5031453;28;20049;-62
2022/04/04 06:29:25;;;;;;;11.57;7.47;;;;;;;10.62;54.70;101604.56;5026879;28;20085;-65
2022/04/04 06:31:51;;;;;;;10.10;7.63;;;;;;;10.67;54.68;101607.00;5031574;28;20038;-65
2022/04/04 06:34:19;;;;;;;10.55;7.30;;;;;;;10.72;54.72;101602.41;5031208;28;20552;-71
2022/04/04 06:36:47;;;;;;;11.43;7.60;;;;;;;10.73;54.70;101603.28;5031693;28;20068;-62
2022/04/04 06:39:14;;;;;;;12.43;7.95;;;;;;;10.74;54.50;101610.22;5028589;28;20053;-62
2022/04/04 06:41:48;;;;;;;12.50;7.35;;;;;;;10.77;54.50;101610.09;5029652;28;20061;-61
2022/04/04 06:44:19;;;;;;;10.80;7.20;;;;;;;10.79;54.19;101610.88;5028784;28;20055;-62
2022/04/04 06:46:50;;;;;;;9.90;7.05;;;;;;;10.75;54.35;101602.31;5024478;28;20053;-62
2022/04/04 06:49:17;;;;;;;9.57;7.35;;;;;;;10.73;54.22;101614.63;5030188;28;20059;-68
2022/04/04 06:51:44;;;;;;;10.95;7.32;;;;;;;10.75;54.10;101614.56;5030273;28;20041;-60
2022/04/04 06:54:10;;;;;;;10.68;7.10;;;;;;;10.81;53.74;101616.91;5029114;28;20046;-61
2022/04/04 06:56:37;;;;;;;9.30;7.03;;;;;;;10.95;53.31;101619.78;5029077;28;20051;-62
2022/04/04 06:59:04;;;;;;;10.07;6.80;;;;;;;11.02;53.04;101619.50;5029545;28;20045;-62
2022/04/04 07:01:31;;;;;;;14.25;7.30;;;;;;;11.15;52.58;101615.44;5030610;28;20095;-62
2022/04/04 07:03:58;;;;;;;9.98;6.80;;;;;;;11.26;52.31;101620.19;5025679;28;20042;-60
2022/04/04 07:06:25;;;;;;;15.05;7.18;;;;;;;11.33;52.26;101619.00;5029348;28;20092;-61
2022/04/04 07:08:52;;;;;;;12.05;6.05;;;;;;;11.44;51.95;101621.13;5029525;28;20049;-62
2022/04/04 07:11:19;;;;;;;9.02;6.53;;;;;;;11.60;51.43;101618.63;5030413;28;20053;-60
2022/04/04 07:13:49;;;;;;;10.68;6.95;;;;;;;11.69;51.28;101618.19;5029768;28;20176;-61
2022/04/04 07:16:16;;;;;;;10.80;5.78;;;;;;;11.75;50.94;101619.69;5029871;28;20488;-61
2022/04/04 07:18:44;;;;;;;7.47;5.90;;;;;;;11.82;50.39;101612.34;5030046;28;20398;-61
2022/04/04 07:21:10;;;;;;;9.30;6.25;;;;;;;11.83;50.30;101614.91;5029351;28;20049;-69
2022/04/04 07:23:37;;;;;;;10.30;6.00;;;;;;;11.77;50.16;101605.53;5030155;28;20116;-67
2022/04/04 07:26:04;;;;;;;9.70;5.47;;;;;;;11.75;50.01;101611.81;5029868;28;20421;-61
2022/04/04 07:28:31;;;;;;;6.90;5.40;;;;;;;11.69;49.91;101615.56;5029740;28;20080;-63
2022/04/04 07:30:58;;;;;;;8.25;5.68;;;;;;;11.68;49.86;101620.91;5027492;28;20045;-62
2022/04/04 07:33:25;;;;;;;11.30;5.97;;;;;;;11.66;49.70;101625.41;5030039;28;20119;-61
2022/04/04 07:35:52;;;;;;;8.90;5.88;;;;;;;11.67;49.52;101621.81;5028782;28;20088;-61
2022/04/04 07:38:19;;;;;;;9.82;5.53;;;;;;;11.69;49.34;101633.97;5028821;28;20052;-63
2022/04/04 07:40:46;;;;;;;8.45;5.22;;;;;;;11.72;49.12;101633.84;5029458;28;20132;-67
2022/04/04 07:43:13;;;;;;;6.88;4.75;;;;;;;11.72;48.82;101628.56;5029603;28;20053;-62
2022/04/04 07:45:40;;;;;;;9.55;5.15;;;;;;;12.02;47.92;101625.41;5029106;28;20091;-62
2022/04/04 07:48:11;;;;;;;9.90;5.00;;;;;;;12.61;46.43;101616.41;5029583;28;20042;-63
2022/04/04 07:50:38;;;;;;;6.85;4.75;;;;;;;12.96;46.04;101619.84;5026632;28;20050;-62
2022/04/04 07:53:05;;;;;;;5.85;4.35;;;;;;;13.22;45.18;101622.88;5029565;28;20115;-61
2022/04/04 07:55:32;;;;;;;6.47;4.70;;;;;;;13.43;44.62;101615.63;5028119;28;20049;-62
2022/04/04 07:57:59;;;;;;;8.65;4.53;;;;;;;13.61;44.15;101628.72;5026737;28;20045;-61
2022/04/04 08:00:30;;;;;;;8.48;5.07;;;;;;;13.62;43.82;101626.00;5029075;28;20077;-63
2022/04/04 08:02:57;;;;;;;6.80;4.78;;;;;;;13.77;43.10;101626.94;5029775;28;20045;-62
2022/04/04 08:05:26;;;;;;;7.30;4.70;;;;;;;13.96;42.68;101633.84;5028619;28;20049;-63
2022/04/04 08:07:53;;;;;;;6.72;3.97;;;;;;;14.12;42.13;101621.47;5026845;28;20053;-61
2022/04/04 08:10:24;;;;;;;5.72;4.20;;;;;;;14.28;41.92;101626.69;5026915;28;20049;-63
2022/04/04 08:12:52;;;;;;;8.80;4.38;;;;;;;14.37;41.69;101626.16;5027472;28;20049;-64
2022/04/04 08:15:19;;;;;;;5.22;3.83;;;;;;;14.57;41.12;101618.84;5026267;28;20494;-63
2022/04/04 08:17:45;;;;;;;5.68;4.07;;;;;;;14.76;40.76;101617.78;5029087;28;20083;-63
2022/04/04 08:20:13;;;;;;;6.13;4.20;;;;;;;14.90;40.62;101620.44;5029055;28;20480;-62
2022/04/04 08:22:44;;;;;;;5.13;3.92;;;;;;;15.06;40.24;101617.72;5026147;28;20045;-69
2022/04/04 08:25:12;;;;;;;7.20;3.47;;;;;;;15.21;40.46;101630.91;5028513;28;20045;-70
2022/04/04 08:27:41;;;;;;;7.65;3.67;;;;;;;15.32;39.75;101626.66;5028745;28;20049;-62
2022/04/04 08:30:10;;;;;;;5.43;3.40;;;;;;;15.47;39.80;101627.47;5028782;28;20080;-62
2022/04/04 08:32:38;;;;;;;7.95;3.35;;;;;;;15.58;39.09;101632.09;5028013;28;20042;-62
2022/04/04 08:35:07;;;;;;;6.05;3.58;;;;;;;15.59;39.54;101632.94;5026059;28;20409;-63
2022/04/04 08:37:35;;;;;;;7.95;3.50;;;;;;;15.35;39.92;101630.91;5028528;28;20046;-63
2022/04/04 08:40:05;;;;;;;6.07;3.92;;;;;;;15.65;39.33;101633.41;5028479;28;20086;-63
2022/04/04 08:42:32;;;;;;;8.25;3.83;;;;;;;16.00;38.55;101632.94;5028288;28;20037;-62
2022/04/04 08:45:00;;;;;;;6.30;3.45;;;;;;;16.33;38.03;101636.13;5027850;28;20049;-63
2022/04/04 08:47:31;;;;;;;6.05;3.80;;;;;;;16.09;38.33;101626.19;5026833;28;20057;-62
2022/04/04 08:50:00;;;;;;;4.65;3.45;;;;;;;15.77;39.23;101644.13;5028433;28;20064;-63
2022/04/04 08:52:27;;;;;;;4.88;3.20;;;;;;;15.35;39.60;101636.22;5025565;28;20095;-61
2022/04/04 08:54:54;;;;;;;4.47;3.08;;;;;;;15.01;40.21;101643.56;5027774;28;20573;-61
2022/04/04 08:57:20;;;;;;;5.53;3.35;;;;;;;14.76;40.29;101638.94;5027958;28;20418;-62
2022/04/04 08:59:47;;;;;;;3.72;3.20;;;;;;;14.59;40.32;101642.53;5026147;28;20037;-65
2022/04/04 09:02:15;;;;;;;6.10;3.67;;;;;;;14.41;40.68;101645.31;5028792;28;20057;-65
2022/04/04 09:04:42;;;;;;;8.98;3.92;;;;;;;14.28;41.07;101641.69;5026485;28;20041;-62
2022/04/04 09:07:11;;;;;;;9.38;4.10;;;;;;;14.14;41.09;101640.69;5028315;28;20417;-62
2022/04/04 09:09:43;;;;;;;5.70;3.63;;;;;;;14.08;41.36;101643.69;5028356;28;20513;-62
2022/04/04 09:12:11;;;;;;;5.65;3.40;;;;;;;13.95;41.31;101645.31;5028456;28;20049;-62
2022/04/04 09:14:44;;;;;;;5.88;3.67;;;;;;;13.93;41.20;101649.81;5027968;28;20045;-62
2022/04/04 09:17:13;;;;;;;3.92;3.40;;;;;;;13.87;41.03;101637.84;5028046;28;20538;-68
2022/04/04 09:19:40;;;;;;;6.45;3.35;;;;;;;13.84;41.13;101649.41;5027759;28;20092;-62
2022/04/04 09:22:13;;;;;;;5.50;3.03;;;;;;;13.87;40.75;101641.31;5027017;28;20045;-62
2022/04/04 09:24:57;;;;;;;4.47;3.42;;;;;;;13.99;40.80;101641.56;5027730;28;20041;-67
2022/04/04 09:27:32;;;;;;;6.03;3.28;;;;;;;14.02;40.71;101636.97;5026438;28;20049;-62
2022/04/04 09:30:07;;;;;;;6.63;3.43;;;;;;;14.09;40.61;101633.97;5025560;28;20486;-65
2022/04/04 09:32:42;;;;;;;7.50;3.40;;;;;;;14.09;40.54;101640.09;5027779;28;20095;-65
2022/04/04 09:35:14;;;;;;;3.97;3.15;;;;;;;14.14;40.26;101639.84;5027739;28;20042;-65
2022/04/04 09:37:50;;;;;;;4.68;2.17;;;;;;;14.57;41.26;101636.50;5024381;28;20404;-64
2022/04/04 09:40:24;;;;;;;4.88;3.17;;;;;;;14.63;41.47;101629.06;5027751;28;20061;-65
2022/04/04 09:42:53;;;;;;;4.85;2.30;;;;;;;14.45;41.07;101631.00;5027761;28;20041;-67
2022/04/04 09:45:26;;;;;;;8.07;3.13;;;;;;;14.31;40.92;101633.56;5025273;28;20042;-65
2022/04/04 09:48:04;;;;;;;5.75;3.47;;;;;;;14.42;39.94;101625.03;5027966;28;20045;-66
2022/04/04 09:50:44;;;;;;;4.78;2.97;;;;;;;14.47;39.74;101628.25;5026875;28;20049;-63
2022/04/04 09:53:13;;;;;;;5.15;2.95;;;;;;;14.34;39.84;101630.78;5026774;28;20041;-65
2022/04/04 09:55:46;;;;;;;4.13;3.15;;;;;;;14.25;39.56;101629.50;5025292;28;20069;-67
2022/04/04 09:58:15;;;;;;;4.88;2.75;;;;;;;14.25;39.46;101623.41;5027942;28;20046;-66
2022/04/04 10:00:44;;;;;;;4.85;2.70;;;;;;;14.19;39.09;101614.91;5025857;28;20068;-65
2022/04/04 10:03:12;;;;;;;4.95;2.75;;;;;;;14.26;38.93;101623.31;5027757;28;20049;-65
2022/04/04 10:05:44;;;;;;;5.57;3.13;;;;;;;14.59;38.07;101618.75;5024430;28;20091;-65
2022/04/04 10:08:14;;;;;;;4.97;3.00;;;;;;;15.04;37.05;101611.66;5027648;28;20052;-65
2022/04/04 10:10:41;;;;;;;3.60;2.80;;;;;;;16.01;35.57;101610.00;5026337;28;20042;-65
2022/04/04 10:13:11;;;;;;;4.55;2.58;;;;;;;15.72;36.09;101609.19;5026631;28;20046;-65
2022/04/04 10:15:39;;;;;;;4.95;3.53;;;;;;;15.14;36.97;101606.66;5026922;28;20494;-64
2022/04/04 10:18:06;;;;;;;4.38;3.10;;;;;;;15.34;36.65;101602.78;5027610;28;20046;-65
2022/04/04 10:20:34;;;;;;;5.53;2.90;;;;;;;14.64;38.02;101606.13;5027747;28;20053;-65
2022/04/04 10:23:03;;;;;;;3.65;2.58;;;;;;;14.18;38.29;101602.63;5027533;28;20042;-66
2022/04/04 10:25:32;;;;;;;5.55;3.70;;;;;;;14.01;39.11;101600.13;5027074;28;20073;-63
2022/04/04 10:27:59;;;;;;;5.55;3.83;;;;;;;13.80;39.71;101605.69;5027640;28;20042;-62
2022/04/04 10:30:34;;;;;;;8.43;4.75;;;;;;;13.70;39.76;101601.88;5030417;28;20156;-65
2022/04/04 10:33:02;;;;;;;6.80;3.90;;;;;;;13.67;40.12;101597.59;5028637;28;20049;-65
2022/04/04 10:35:30;;;;;;;5.68;4.10;;;;;;;13.77;39.85;101597.91;5030808;28;20045;-65
2022/04/04 10:38:03;;;;;;;5.80;4.20;;;;;;;13.80;39.99;101588.97;5031345;28;20088;-64
2022/04/04 10:40:32;;;;;;;6.40;4.30;;;;;;;13.88;39.79;101586.78;5030710;28;20053;-65
2022/04/04 10:43:12;;;;;;;6.38;4.10;;;;;;;13.88;40.06;101584.97;5030434;28;20049;-65
2022/04/04 10:46:10;;;;;;;5.88;4.32;;;;;;;13.93;40.09;101582.09;5030314;28;20049;-65
2022/04/04 10:48:39;;;;;;;3.63;2.65;;;;;;;14.01;40.05;101576.38;5021543;28;20124;-68
2022/04/04 10:51:20;;;;;;;3.60;1.70;;;;;;;14.64;40.93;101584.97;5030318;28;20041;-66
2022/04/04 10:53:54;;;;;;;3.47;2.38;;;;;;;14.95;41.72;101586.63;5028997;28;20064;-68
2022/04/04 10:56:23;;;;;;;7.00;4.18;;;;;;;15.14;42.30;101581.06;5029891;28;20103;-65
2022/04/04 10:58:52;;;;;;;4.18;2.80;;;;;;;15.44;42.12;101581.84;5030620;28;20115;-67
2022/04/04 11:01:24;;;;;;;6.78;3.20;;;;;;;15.69;42.52;101575.84;5030673;28;20045;-65
2022/04/04 11:03:51;;;;;;;8.10;3.33;;;;;;;15.93;42.26;101575.22;5029326;28;20160;-65
2022/04/04 11:09:04;;;;;;;5.25;3.53;;;;;;;16.25;43.05;101567.78;5028162;28;20099;-66
2022/04/04 11:11:48;;;;;;;4.95;3.50;;;;;;;16.47;43.20;101561.84;5031305;28;20140;-63
2022/04/04 11:14:27;;;;;;;6.80;3.33;;;;;;;16.98;43.11;101557.53;5010828;28;20045;-65
2022/04/04 11:17:06;;;;;;;4.60;3.65;;;;;;;16.80;42.57;101565.78;5018178;28;20056;-62
2022/04/04 11:20:31;;;;;;;4.40;3.70;;;;;;;16.24;42.52;101563.44;5020200;28;20516;-62
2022/04/04 11:23:01;;;;;;;6.47;3.90;;;;;;;17.30;39.57;101554.38;5015039;28;20104;-64
2022/04/04 11:25:33;;;;;;;4.45;3.67;;;;;;;16.39;40.04;101564.19;5029808;28;20107;-62
2022/04/04 11:28:05;;;;;;;4.13;3.72;;;;;;;16.50;39.08;101560.81;5043712;28;20045;-63
2022/04/04 11:30:32;;;;;;;6.10;3.65;;;;;;;16.09;39.36;101564.47;5050490;28;20053;-62
2022/04/04 11:32:59;;;;;;;6.50;3.88;;;;;;;15.74;39.25;101562.31;5050201;28;20095;-62
2022/04/04 11:35:31;;;;;;;6.43;3.90;;;;;;;15.59;38.93;101567.66;5049928;28;20049;-61